KNAK

United States Naval Academy Airport

Annapolis, Maryland, USA
METAR KNAK 200054Z AUTO 00000KT 10SM CLR 04/M07 A3005 RMK AO2 SLP177 T00441072
Observed Flight Rules
Jan-20 @ 00:54 UTC (30 minutes ago) Visual Flight Rules
Wind Visibility Clouds
Calm 10 miles
  • Clear skies
Temperatures Readings
Current 4°C / 39°F
Dewpoint -7°C / 19°F
Humidity 45%
Altimeter 30.05" Hg
Pressure 1017.7 hPa
Elevation 2
METAR KNAK 200054Z AUTO 00000KT 10SM CLR 04/M07 A3005 RMK AO2 SLP177 T00441072
Observed Flight Rules
Jan-20 @ 00:54 UTC
(30 minutes ago)
VFR
Wind Visibility
Calm 10 miles
Clouds
  • Clear skies
Temperature Dewpoint
4°C / 39°F -7°C / 19°F
Humidity Altimeter Pressure
45% 30.05" Hg 1017.7 hPa